createdAt,value
2018-07-23T00:02:19.419Z,9.13
2018-07-23T00:04:48.496Z,8.87
2018-07-23T00:07:17.444Z,9.37
2018-07-23T00:09:46.480Z,8.63
2018-07-23T00:12:15.926Z,8.37
2018-07-23T00:14:44.887Z,7.87
2018-07-23T00:17:13.837Z,7.90
2018-07-23T00:19:42.853Z,7.97
2018-07-23T00:22:11.921Z,7.67
2018-07-23T00:24:41.318Z,7.13
2018-07-23T00:27:10.442Z,7.63
2018-07-23T00:29:39.395Z,8.50
2018-07-23T00:32:08.710Z,8.43
2018-07-23T00:34:37.738Z,8.13
2018-07-23T00:37:06.834Z,8.37
2018-07-23T00:39:36.184Z,8.30
2018-07-23T00:42:05.553Z,8.80
2018-07-23T00:44:34.590Z,8.93
2018-07-23T00:47:03.644Z,8.37
2018-07-23T00:49:32.680Z,7.47
2018-07-23T00:52:01.696Z,8.43
2018-07-23T00:54:30.644Z,8.40
2018-07-23T00:56:59.639Z,9.17
2018-07-23T00:59:28.772Z,8.67
2018-07-23T01:01:57.844Z,9.43
2018-07-23T01:04:26.818Z,9.57
2018-07-23T01:06:55.847Z,8.50
2018-07-23T01:09:24.800Z,9.27
2018-07-23T01:11:53.844Z,8.27
2018-07-23T01:14:22.840Z,8.60
2018-07-23T01:16:51.824Z,8.20
2018-07-23T01:19:20.824Z,8.70
2018-07-23T01:21:49.816Z,9.00
2018-07-23T01:24:18.880Z,9.47
2018-07-23T01:26:48.027Z,8.80
2018-07-23T01:29:17.008Z,8.70
2018-07-23T01:31:46.024Z,7.57
2018-07-23T01:34:15.332Z,8.53
2018-07-23T01:36:44.318Z,9.10
2018-07-23T01:39:13.348Z,10.00
2018-07-23T01:41:42.368Z,9.67
2018-07-23T01:44:11.360Z,9.70
2018-07-23T01:46:40.430Z,9.40
2018-07-23T01:49:09.404Z,9.20
2018-07-23T01:51:40.678Z,9.83
2018-07-23T01:54:10.690Z,9.67
2018-07-23T01:56:39.826Z,9.60
2018-07-23T01:59:08.828Z,9.67
2018-07-23T02:01:37.862Z,9.13
2018-07-23T02:04:07.578Z,8.83
2018-07-23T02:06:36.892Z,9.47
2018-07-23T02:09:11.612Z,10.00
2018-07-23T02:11:41.233Z,9.77
2018-07-23T02:14:10.282Z,9.67
2018-07-23T02:16:39.280Z,9.67
2018-07-23T02:19:11.507Z,9.63
2018-07-23T02:21:40.560Z,9.63
2018-07-23T02:24:09.584Z,9.07
2018-07-23T02:26:38.488Z,9.27
2018-07-23T02:29:07.448Z,9.27
2018-07-23T02:31:36.324Z,10.03
2018-07-23T02:34:05.229Z,9.67
2018-07-23T02:36:34.146Z,10.73
2018-07-23T02:39:03.201Z,9.33
2018-07-23T02:41:32.119Z,10.03
2018-07-23T02:44:01.054Z,10.40
2018-07-23T02:46:29.957Z,11.00
2018-07-23T02:48:58.885Z,10.40
2018-07-23T02:51:27.780Z,12.27
2018-07-23T02:53:56.676Z,11.87
2018-07-23T02:56:25.584Z,12.47
2018-07-23T02:58:54.467Z,13.53
2018-07-23T03:01:23.403Z,12.97
2018-07-23T03:03:56.173Z,13.70
2018-07-23T03:06:26.341Z,13.83
2018-07-23T03:08:55.365Z,13.60
2018-07-23T03:11:24.767Z,13.73
2018-07-23T03:13:53.709Z,14.00
2018-07-23T03:16:22.638Z,14.37
2018-07-23T03:18:52.013Z,12.93
2018-07-23T03:21:20.916Z,13.33
2018-07-23T03:23:49.811Z,13.23
2018-07-23T03:26:19.247Z,13.17
2018-07-23T03:28:48.180Z,13.97
2018-07-23T03:31:17.416Z,14.03
2018-07-23T03:33:46.307Z,14.57
2018-07-23T03:36:15.243Z,13.47
2018-07-23T03:38:44.180Z,13.03
2018-07-23T03:41:13.080Z,15.27
2018-07-23T03:43:42.137Z,14.07
2018-07-23T03:46:11.067Z,15.60
2018-07-23T03:48:40.005Z,15.30
2018-07-23T03:51:08.911Z,15.33
2018-07-23T03:53:37.851Z,16.93
2018-07-23T03:56:07.018Z,17.77
2018-07-23T03:58:36.029Z,17.97
2018-07-23T04:01:04.985Z,16.87
2018-07-23T04:03:33.903Z,17.63
2018-07-23T04:06:02.897Z,17.90
2018-07-23T04:08:31.781Z,18.77
2018-07-23T04:11:00.695Z,19.60
2018-07-23T04:13:29.601Z,19.03
2018-07-23T04:15:58.512Z,20.67
2018-07-23T04:18:27.431Z,19.70
2018-07-23T04:20:56.370Z,20.50
2018-07-23T04:23:25.320Z,17.73
2018-07-23T04:25:54.232Z,19.13
2018-07-23T04:28:23.135Z,18.13
2018-07-23T04:30:52.431Z,18.30
2018-07-23T04:33:22.193Z,17.53
2018-07-23T04:35:51.183Z,18.77
2018-07-23T04:38:20.165Z,18.47
2018-07-23T04:40:49.144Z,18.80
2018-07-23T04:43:18.034Z,17.07
2018-07-23T04:45:46.931Z,17.37
2018-07-23T04:48:15.822Z,17.90
2018-07-23T04:50:44.815Z,16.97
2018-07-23T04:53:13.754Z,18.70
2018-07-23T04:55:42.695Z,20.10
2018-07-23T04:58:11.611Z,19.23
2018-07-23T05:00:40.546Z,17.50
2018-07-23T05:03:09.495Z,16.97
2018-07-23T05:05:38.377Z,16.33
2018-07-23T05:08:07.398Z,16.57
2018-07-23T05:10:36.294Z,17.13
2018-07-23T05:13:05.579Z,19.03
2018-07-23T05:15:34.504Z,19.13
2018-07-23T05:18:03.408Z,19.27
2018-07-23T05:20:32.343Z,18.93
2018-07-23T05:23:01.276Z,19.17
2018-07-23T05:25:31.440Z,19.00
2018-07-23T05:28:00.388Z,20.20
2018-07-23T05:30:29.296Z,20.53
2018-07-23T05:32:58.309Z,18.73
2018-07-23T05:35:27.270Z,20.93
2018-07-23T05:37:56.221Z,19.10
2018-07-23T05:40:25.151Z,18.47
2018-07-23T05:42:54.088Z,20.80
2018-07-23T05:45:22.999Z,19.73
2018-07-23T05:47:51.954Z,19.50
2018-07-23T05:50:20.906Z,20.73
2018-07-23T05:52:49.821Z,20.50
2018-07-23T05:55:18.745Z,19.60
2018-07-23T05:57:47.713Z,19.80
2018-07-23T06:00:16.641Z,21.30
2018-07-23T06:02:45.604Z,20.10
2018-07-23T06:05:14.580Z,19.90
2018-07-23T06:07:43.557Z,19.37
2018-07-23T06:10:12.569Z,19.43
2018-07-23T06:12:41.509Z,21.23
2018-07-23T06:15:11.723Z,20.67
2018-07-23T06:17:40.835Z,21.17
2018-07-23T06:20:10.163Z,24.07
2018-07-23T06:22:39.084Z,22.67
2018-07-23T06:25:09.384Z,22.10
2018-07-23T06:27:38.319Z,22.53
2018-07-23T06:30:09.561Z,22.33
2018-07-23T06:32:38.623Z,21.93
2018-07-23T06:35:07.635Z,22.90
2018-07-23T06:37:36.716Z,22.67
2018-07-23T06:40:09.245Z,24.50
2018-07-23T06:42:38.159Z,24.67
2018-07-23T06:45:07.124Z,23.20
2018-07-23T06:47:36.076Z,23.00
2018-07-23T06:50:05.799Z,21.43
2018-07-23T06:52:34.761Z,23.10
2018-07-23T06:55:03.725Z,23.37
2018-07-23T06:57:32.706Z,22.93
2018-07-23T07:00:01.645Z,23.83
2018-07-23T07:02:30.599Z,22.33
2018-07-23T07:04:59.511Z,21.07
2018-07-23T07:07:28.469Z,21.40
2018-07-23T07:09:57.965Z,22.47
2018-07-23T07:12:26.890Z,22.27
2018-07-23T07:14:55.871Z,21.57
2018-07-23T07:17:24.801Z,20.87
2018-07-23T07:19:53.804Z,21.40
2018-07-23T07:22:22.849Z,19.37
2018-07-23T07:24:51.933Z,19.47
2018-07-23T07:27:21.369Z,21.23
2018-07-23T07:29:50.273Z,19.03
2018-07-23T07:32:19.223Z,21.17
2018-07-23T07:34:48.248Z,20.93
2018-07-23T07:37:17.248Z,20.33
2018-07-23T07:39:46.177Z,20.97
2018-07-23T07:42:15.108Z,17.83
2018-07-23T07:44:44.109Z,21.57
2018-07-23T07:47:13.065Z,19.90
2018-07-23T07:49:42.035Z,21.00
2018-07-23T07:52:11.019Z,21.47
2018-07-23T07:54:40.068Z,19.43
2018-07-23T07:57:08.999Z,19.87
2018-07-23T07:59:37.921Z,19.50
2018-07-23T08:02:06.918Z,22.63
2018-07-23T08:04:36.093Z,20.40
2018-07-23T08:07:05.067Z,20.73
2018-07-23T08:09:33.988Z,20.53
2018-07-23T08:12:03.016Z,20.17
2018-07-23T08:14:32.574Z,19.30
2018-07-23T08:17:01.626Z,19.17
2018-07-23T08:19:30.540Z,17.83
2018-07-23T08:21:59.451Z,18.03
2018-07-23T08:24:28.380Z,17.93
2018-07-23T08:26:57.334Z,17.70
2018-07-23T08:29:26.348Z,16.33
2018-07-23T08:31:55.392Z,14.87
2018-07-23T08:34:24.753Z,16.33
2018-07-23T08:36:53.752Z,15.60
2018-07-23T08:39:22.694Z,16.83
2018-07-23T08:41:52.478Z,14.73
2018-07-23T08:44:21.433Z,15.77
2018-07-23T08:46:50.344Z,18.00
2018-07-23T08:49:24.714Z,16.07
2018-07-23T08:51:59.336Z,15.10
2018-07-23T08:54:28.266Z,14.50
2018-07-23T08:56:57.220Z,13.20
2018-07-23T08:59:26.147Z,13.07
2018-07-23T09:01:55.060Z,13.27
2018-07-23T09:04:24.120Z,13.27
2018-07-23T09:06:53.125Z,11.23
2018-07-23T09:09:22.112Z,9.47
2018-07-23T09:11:51.056Z,8.63
2018-07-23T09:14:20.353Z,8.10
2018-07-23T09:16:49.250Z,8.90
2018-07-23T09:19:18.142Z,9.30
2018-07-23T09:21:47.082Z,8.80
2018-07-23T09:24:16.029Z,8.03
2018-07-23T09:26:45.678Z,6.57
2018-07-23T09:29:14.581Z,6.73
2018-07-23T09:31:43.544Z,6.50
2018-07-23T09:34:12.442Z,5.80
2018-07-23T09:36:41.352Z,5.90
2018-07-23T09:39:10.785Z,5.83
2018-07-23T09:41:39.814Z,6.37
2018-07-23T09:44:08.794Z,5.37
2018-07-23T09:46:37.722Z,5.87
2018-07-23T09:49:06.660Z,6.03
2018-07-23T09:51:35.569Z,6.00
2018-07-23T09:54:04.597Z,5.27
2018-07-23T09:56:33.508Z,5.50
2018-07-23T09:59:02.438Z,6.87
2018-07-23T10:01:31.370Z,5.93
2018-07-23T10:04:00.376Z,4.90
2018-07-23T10:06:29.332Z,6.80
2018-07-23T10:08:58.301Z,6.03
2018-07-23T10:11:27.217Z,5.20
2018-07-23T10:13:56.111Z,6.70
2018-07-23T10:16:25.093Z,7.00
2018-07-23T10:18:53.987Z,5.70
2018-07-23T10:21:22.953Z,6.67
2018-07-23T10:23:51.984Z,8.03
2018-07-23T10:26:20.891Z,7.77
2018-07-23T10:28:49.794Z,7.93
2018-07-23T10:31:18.812Z,6.63
2018-07-23T10:33:49.192Z,6.77
2018-07-23T10:36:18.097Z,8.27
2018-07-23T10:38:47.020Z,8.17
2018-07-23T10:41:16.412Z,7.60
2018-07-23T10:43:45.299Z,8.10
2018-07-23T10:46:14.230Z,8.30
2018-07-23T10:48:43.205Z,7.10
2018-07-23T10:51:12.137Z,8.13
2018-07-23T10:53:41.136Z,7.87
2018-07-23T10:56:10.056Z,6.80
2018-07-23T10:58:39.016Z,7.67
2018-07-23T11:01:07.981Z,7.50
2018-07-23T11:03:36.886Z,5.53
2018-07-23T11:06:05.950Z,4.90
2018-07-23T11:08:34.942Z,5.47
2018-07-23T11:11:03.912Z,4.53
2018-07-23T11:13:33.136Z,5.03
2018-07-23T11:16:02.066Z,5.20
2018-07-23T11:18:30.988Z,5.23
2018-07-23T11:20:59.894Z,5.43
2018-07-23T11:23:28.814Z,5.30
2018-07-23T11:25:57.729Z,5.33
2018-07-23T11:28:29.668Z,4.53
2018-07-23T11:30:58.660Z,4.80
2018-07-23T11:33:27.563Z,4.63
2018-07-23T11:35:56.549Z,5.97
2018-07-23T11:38:25.490Z,4.90
2018-07-23T11:40:56.633Z,4.20
2018-07-23T11:43:25.574Z,4.53
2018-07-23T11:45:54.493Z,5.13
2018-07-23T11:48:23.415Z,4.83
2018-07-23T11:50:52.467Z,4.70
2018-07-23T11:53:22.637Z,4.90
2018-07-23T11:55:51.593Z,4.70
2018-07-23T11:58:20.580Z,5.43
2018-07-23T12:00:50.109Z,5.53
2018-07-23T12:03:19.229Z,4.90
2018-07-23T12:05:48.155Z,7.03
2018-07-23T12:08:17.152Z,5.23
2018-07-23T12:10:46.149Z,5.83
2018-07-23T12:13:15.239Z,5.40
2018-07-23T12:15:44.499Z,4.97
2018-07-23T12:18:13.508Z,4.90
2018-07-23T12:20:42.521Z,4.93
2018-07-23T12:23:11.906Z,4.83
2018-07-23T12:25:41.868Z,5.20
2018-07-23T12:28:11.831Z,5.33
2018-07-23T12:30:41.523Z,5.23
2018-07-23T12:33:10.719Z,4.93
2018-07-23T12:35:39.639Z,4.63
2018-07-23T12:38:08.547Z,4.63
2018-07-23T12:40:37.499Z,4.90
2018-07-23T12:43:06.557Z,5.13
2018-07-23T12:45:35.545Z,5.00
2018-07-23T12:48:04.487Z,3.73
2018-07-23T12:50:33.431Z,4.00
2018-07-23T12:53:02.359Z,4.63
2018-07-23T12:55:31.336Z,4.43
2018-07-23T12:58:00.215Z,5.40
2018-07-23T13:00:29.222Z,5.17
2018-07-23T13:02:58.135Z,5.63
2018-07-23T13:05:31.837Z,5.80
2018-07-23T13:08:01.899Z,4.97
2018-07-23T13:10:30.811Z,5.23
2018-07-23T13:12:59.932Z,5.47
2018-07-23T13:15:28.893Z,4.90
2018-07-23T13:17:58.812Z,5.07
2018-07-23T13:20:27.767Z,5.37
2018-07-23T13:22:56.683Z,5.00
2018-07-23T13:25:25.616Z,5.03
2018-07-23T13:27:54.654Z,4.97
2018-07-23T13:30:23.583Z,4.40
2018-07-23T13:32:52.747Z,5.10
2018-07-23T13:35:21.640Z,5.37
2018-07-23T13:37:50.598Z,5.17
2018-07-23T13:40:19.616Z,5.70
2018-07-23T13:42:48.505Z,5.40
2018-07-23T13:45:17.481Z,4.97
2018-07-23T13:47:46.513Z,5.00
2018-07-23T13:50:15.505Z,5.07
2018-07-23T13:52:45.043Z,5.73
2018-07-23T13:55:14.002Z,5.23
2018-07-23T13:57:43.032Z,5.03
2018-07-23T14:00:11.945Z,4.43
2018-07-23T14:02:40.907Z,5.40
2018-07-23T14:05:09.868Z,4.90
2018-07-23T14:07:38.807Z,4.83
2018-07-23T14:10:07.766Z,4.47
2018-07-23T14:12:37.627Z,4.33
2018-07-23T14:15:06.578Z,4.73
2018-07-23T14:17:35.417Z,4.60
2018-07-23T14:20:04.463Z,4.60
2018-07-23T14:22:33.369Z,5.13
2018-07-23T14:25:02.327Z,5.80
2018-07-23T14:27:31.195Z,5.87
2018-07-23T14:30:00.120Z,4.67
2018-07-23T14:32:29.062Z,5.30
2018-07-23T14:34:57.958Z,5.37
2018-07-23T14:37:26.904Z,5.13
2018-07-23T14:39:55.790Z,5.10
2018-07-23T14:42:24.770Z,5.07
2018-07-23T14:44:53.662Z,5.63
2018-07-23T14:47:22.577Z,5.37
2018-07-23T14:49:51.611Z,5.10
2018-07-23T14:52:20.483Z,5.40
2018-07-23T14:54:49.426Z,5.77
2018-07-23T14:57:18.337Z,5.63
2018-07-23T14:59:47.246Z,6.10
2018-07-23T15:02:16.208Z,5.23
2018-07-23T15:04:45.184Z,5.50
2018-07-23T15:07:14.093Z,5.03
2018-07-23T15:09:43.879Z,6.27
2018-07-23T15:12:12.868Z,5.20
2018-07-23T15:14:41.780Z,5.77
2018-07-23T15:17:10.682Z,6.57
2018-07-23T15:19:39.621Z,6.00
2018-07-23T15:22:09.038Z,5.50
2018-07-23T15:24:37.941Z,5.90
2018-07-23T15:27:06.916Z,6.40
2018-07-23T15:29:35.833Z,6.90
2018-07-23T15:32:05.507Z,6.00
2018-07-23T15:34:34.411Z,6.03
2018-07-23T15:37:03.333Z,5.97
2018-07-23T15:39:32.243Z,7.07
2018-07-23T15:42:01.429Z,6.80
2018-07-23T15:44:30.524Z,6.50
2018-07-23T15:46:59.267Z,6.10
2018-07-23T15:49:28.151Z,5.43
2018-07-23T15:51:57.181Z,6.83
2018-07-23T15:54:26.059Z,5.87
2018-07-23T15:56:55.001Z,5.97
2018-07-23T15:59:23.965Z,6.27
2018-07-23T16:01:53.893Z,6.00
2018-07-23T16:04:22.807Z,6.33
2018-07-23T16:06:51.679Z,6.87
2018-07-23T16:09:20.704Z,6.67
2018-07-23T16:11:49.588Z,5.57
2018-07-23T16:14:18.489Z,6.50
2018-07-23T16:16:47.403Z,6.10
2018-07-23T16:19:16.875Z,5.60
2018-07-23T16:21:45.959Z,5.53
2018-07-23T16:24:14.853Z,5.10
2018-07-23T16:26:43.795Z,4.87
2018-07-23T16:29:14.463Z,5.10
2018-07-23T16:31:43.340Z,5.17
2018-07-23T16:34:12.286Z,4.70
2018-07-23T16:36:41.186Z,5.30
2018-07-23T16:39:12.078Z,5.30
2018-07-23T16:41:41.292Z,4.60
2018-07-23T16:44:10.396Z,4.40
2018-07-23T16:46:39.380Z,4.50
2018-07-23T16:49:08.255Z,4.60
2018-07-23T16:51:37.192Z,4.33
2018-07-23T16:54:06.184Z,4.27
2018-07-23T16:56:35.012Z,4.47
2018-07-23T16:59:04.013Z,4.10
2018-07-23T17:01:32.911Z,4.83
2018-07-23T17:04:01.846Z,4.10
2018-07-23T17:06:30.780Z,4.77
2018-07-23T17:08:59.775Z,4.60
2018-07-23T17:11:28.763Z,4.13
2018-07-23T17:13:57.661Z,4.30
2018-07-23T17:16:26.588Z,4.77
2018-07-23T17:18:55.543Z,4.53
2018-07-23T17:21:24.484Z,4.77
2018-07-23T17:23:53.426Z,4.60
2018-07-23T17:26:22.326Z,4.57
2018-07-23T17:28:51.337Z,4.80
2018-07-23T17:31:20.213Z,4.30
2018-07-23T17:33:55.664Z,4.97
2018-07-23T17:36:24.626Z,4.40
2018-07-23T17:38:53.533Z,4.10
2018-07-23T17:41:22.558Z,4.83
2018-07-23T17:43:51.520Z,5.00
2018-07-23T17:46:20.439Z,3.93
2018-07-23T17:48:49.718Z,4.83
2018-07-23T17:51:18.612Z,4.80
2018-07-23T17:53:47.698Z,4.50
2018-07-23T17:56:16.602Z,4.57
2018-07-23T17:58:45.544Z,4.53
2018-07-23T18:01:14.443Z,4.77
2018-07-23T18:03:43.332Z,4.53
2018-07-23T18:06:12.261Z,4.60
2018-07-23T18:08:41.189Z,4.67
2018-07-23T18:11:10.187Z,4.57
2018-07-23T18:13:39.154Z,4.30
2018-07-23T18:16:08.425Z,4.37
2018-07-23T18:18:37.372Z,4.23
2018-07-23T18:21:06.255Z,4.63
2018-07-23T18:23:35.198Z,4.50
2018-07-23T18:26:04.133Z,4.50
2018-07-23T18:28:33.148Z,4.50
2018-07-23T18:31:02.175Z,4.30
2018-07-23T18:33:31.113Z,4.17
2018-07-23T18:36:00.807Z,4.67
2018-07-23T18:38:29.881Z,4.40
2018-07-23T18:40:58.695Z,4.40
2018-07-23T18:43:27.791Z,4.30
2018-07-23T18:45:56.795Z,3.87
2018-07-23T18:49:37.320Z,4.67
2018-07-23T18:52:06.321Z,4.63
2018-07-23T18:54:35.675Z,5.03
2018-07-23T18:57:06.553Z,4.83
2018-07-23T18:59:35.578Z,4.47
2018-07-23T19:02:06.921Z,4.43
2018-07-23T19:04:35.963Z,4.40
2018-07-23T19:07:05.340Z,4.17
2018-07-23T19:09:34.315Z,4.20
2018-07-23T19:12:03.303Z,4.83
2018-07-23T19:14:32.203Z,4.33
2018-07-23T19:17:02.155Z,4.20
2018-07-23T19:19:31.100Z,4.30
2018-07-23T19:22:00.160Z,4.10
2018-07-23T19:24:29.115Z,4.47
2018-07-23T19:26:58.019Z,4.17
2018-07-23T19:29:26.995Z,4.90
2018-07-23T19:31:56.024Z,4.17
2018-07-23T19:34:24.941Z,4.30
2018-07-23T19:36:53.923Z,4.87
2018-07-23T19:39:23.112Z,4.27
2018-07-23T19:41:52.091Z,4.30
2018-07-23T19:44:21.009Z,4.20
2018-07-23T19:46:49.945Z,4.67
2018-07-23T19:49:19.003Z,4.40
2018-07-23T19:51:47.967Z,4.57
2018-07-23T19:54:16.835Z,5.13
2018-07-23T19:56:45.728Z,4.30
2018-07-23T19:59:14.664Z,4.83
2018-07-23T20:01:43.581Z,4.60
2018-07-23T20:04:12.517Z,4.60
2018-07-23T20:06:41.425Z,5.20
2018-07-23T20:09:11.243Z,4.97
2018-07-23T20:11:41.059Z,4.40
2018-07-23T20:14:09.968Z,4.67
2018-07-23T20:16:38.828Z,5.13
2018-07-23T20:19:07.748Z,4.93
2018-07-23T20:21:36.667Z,4.70
2018-07-23T20:24:05.663Z,5.03
2018-07-23T20:26:34.567Z,5.00
2018-07-23T20:29:03.567Z,4.70
2018-07-23T20:31:32.436Z,4.50
2018-07-23T20:34:01.401Z,4.97
2018-07-23T20:36:30.287Z,5.13
2018-07-23T20:38:59.249Z,4.93
2018-07-23T20:41:28.121Z,5.07
2018-07-23T20:43:57.159Z,5.40
2018-07-23T20:46:26.069Z,5.10
2018-07-23T20:48:55.027Z,5.30
2018-07-23T20:51:24.057Z,5.40
2018-07-23T20:53:53.173Z,5.30
2018-07-23T20:56:22.124Z,4.73
2018-07-23T20:58:51.085Z,4.90
2018-07-23T21:01:20.008Z,5.50
2018-07-23T21:03:49.005Z,5.50
2018-07-23T21:06:17.895Z,5.73
2018-07-23T21:08:46.897Z,5.20
2018-07-23T21:11:15.922Z,4.77
2018-07-23T21:13:45.122Z,5.50
2018-07-23T21:16:14.056Z,4.77
2018-07-23T21:18:43.020Z,4.60
2018-07-23T21:21:11.929Z,4.70
2018-07-23T21:23:40.877Z,5.47
2018-07-23T21:26:09.907Z,4.97
2018-07-23T21:28:38.865Z,4.80
2018-07-23T21:31:07.935Z,4.93
2018-07-23T21:33:36.866Z,4.63
2018-07-23T21:36:05.840Z,4.80
2018-07-23T21:38:34.836Z,4.60
2018-07-23T21:41:03.756Z,5.10
2018-07-23T21:43:32.706Z,4.30
2018-07-23T21:46:01.607Z,4.97
2018-07-23T21:48:31.321Z,4.80
2018-07-23T21:51:00.225Z,5.13
2018-07-23T21:53:29.315Z,4.83
2018-07-23T21:55:58.187Z,4.90
2018-07-23T21:58:27.098Z,4.70
2018-07-23T22:00:56.074Z,4.73
2018-07-23T22:03:24.937Z,5.23
2018-07-23T22:05:53.964Z,5.93
2018-07-23T22:08:22.967Z,4.97
2018-07-23T22:10:52.749Z,5.00
2018-07-23T22:13:21.663Z,4.80
2018-07-23T22:15:50.583Z,4.93
2018-07-23T22:18:19.468Z,5.60
2018-07-23T22:20:48.441Z,4.87
2018-07-23T22:23:17.433Z,4.83
2018-07-23T22:25:46.416Z,5.23
2018-07-23T22:28:15.310Z,4.87
2018-07-23T22:30:44.256Z,5.33
2018-07-23T22:33:13.176Z,5.10
2018-07-23T22:35:42.353Z,4.70
2018-07-23T22:38:11.250Z,5.20
2018-07-23T22:40:40.173Z,5.20
2018-07-23T22:43:09.165Z,5.90
2018-07-23T22:45:38.165Z,5.80
2018-07-23T22:48:07.300Z,5.73
2018-07-23T22:50:36.198Z,5.40
2018-07-23T22:53:05.253Z,6.17
2018-07-23T22:55:34.729Z,6.10
2018-07-23T22:58:03.620Z,5.57
2018-07-23T23:00:33.606Z,5.90
2018-07-23T23:03:02.552Z,5.30
2018-07-23T23:05:31.776Z,5.23
2018-07-23T23:08:00.664Z,5.07
2018-07-23T23:10:29.555Z,5.13
2018-07-23T23:12:58.507Z,5.60
2018-07-23T23:15:28.246Z,5.50
2018-07-23T23:17:57.155Z,5.83
2018-07-23T23:20:26.142Z,5.60
2018-07-23T23:22:56.042Z,5.67
2018-07-23T23:25:24.991Z,5.07
2018-07-23T23:27:53.856Z,5.73
2018-07-23T23:30:22.809Z,5.53
2018-07-23T23:32:51.805Z,5.60
2018-07-23T23:35:21.804Z,5.07
2018-07-23T23:37:50.718Z,5.33
2018-07-23T23:40:19.621Z,4.97
2018-07-23T23:42:48.588Z,5.27
2018-07-23T23:45:17.465Z,5.70
2018-07-23T23:47:46.383Z,5.27
2018-07-23T23:50:15.272Z,5.33
2018-07-23T23:52:44.190Z,5.70
2018-07-23T23:55:13.284Z,5.17
2018-07-23T23:57:42.230Z,5.10
